Upstream stations:
Downstream station:
SHEF ID: YUKO2 North Canadian River near Yukon,
STATION TYPE:
Regulating: Stage = 11.00, Flow = 3611
STAGE RIV-FLOW WTR-TEMP BAT-LOAD
ft cfs F volt
Ccp-Rev Ccp-Rev Ccp-Rev Ccp-Rev
(US/Central)
01/29 00:00 1.55 54 53.60 12.79
01/29 01:00 1.55 54 53.60 12.76
01/29 02:00 1.55 54 53.60 12.72
01/29 03:00 1.55 54 53.60 12.70
01/29 04:00 1.56 55 53.60 12.66
01/29 05:00 1.56 55 53.60 12.63
01/29 06:00 1.55 54 53.60 12.61
01/29 07:00 1.55 54 53.60 12.59
01/29 08:00 1.54 53 53.60 12.57
01/29 09:00 1.51 49 53.60 13.47
01/29 10:00 1.46 44 53.60 13.96
01/29 11:00 1.42 40 53.60 13.85
01/29 12:00 1.39 37 53.60 13.74
01/29 13:00 1.38 36 53.60 13.68
01/29 14:00 1.38 36 53.60 13.63
01/29 15:00 1.37 35 53.60 13.55
01/29 16:00 1.37 35 53.60 13.40
01/29 17:00 1.37 35 53.60 13.26
01/29 18:00 1.39 37 53.60 13.13
01/29 19:00 1.41 39 53.60 13.03
01/29 20:00 1.43 41 53.60 12.96
01/29 21:00 1.46 44 53.60 12.93
01/29 22:00 1.47 45 53.60 12.90
01/29 23:00 1.50 48 43.14 12.86